NORTHERN NASSAU  -  Flash Flood Watch Flash Flood Watch     Rip Current Statement Rip Current Statement        NORTHERN QUEENS  -  Flash Flood Watch Flash Flood Watch     Rip Current Statement Rip Current Statement        SOUTHERN NASSAU  -  Flash Flood Watch Flash Flood Watch     Rip Current Statement Rip Current Statement        SOUTHERN QUEENS  -  Flash Flood Watch Flash Flood Watch     Rip Current Statement Rip Current Statement        NORTHEAST SUFFOLK  -  Rip Current Statement Rip Current Statement        NORTHWEST SUFFOLK  -  Rip Current Statement Rip Current Statement        SOUTHEAST SUFFOLK  -  Rip Current Statement Rip Current Statement        SOUTHWEST SUFFOLK  -  Rip Current Statement Rip Current Statement      

Active alerts

Northern Queens
  Details for Northern Queens Flash Flood Watch  +1 additional alert
Southern Queens
  Details for Southern Queens Flash Flood Watch  +1 additional alert
Northern Nassau
  Details for Northern Nassau Flash Flood Watch  +1 additional alert
Southern Nassau
  Details for Southern Nassau Flash Flood Watch  +1 additional alert
Northwest Suffolk
  Details for Northwest Suffolk Rip Current Statement
Southwest Suffolk
  Details for Southwest Suffolk Rip Current Statement
Northeast Suffolk
  Details for Northeast Suffolk Rip Current Statement
Southeast Suffolk
  Details for Southeast Suffolk Rip Current Statement


WXM80 ListenWXM80 Stop

You find our weather info also at:

UK Metoffice

WeatherCloud

Weather Underground

Northeastern Weather Network

AWEKAS

Citizen Weather Observer Program (CWOP)

HAMweather, WeatherForYou, PWS Weather


Weather Underground History page Text

Daily Summary for March 12, 2017 Units:  English    Metric   Both
« Previous Day
Next Day »
Daily Weekly Monthly Yearly Custom
  High: Low: Average:
Temperature: 31.5 °F 18.5 °F 24.8 °F
Dew Point: 14.0 °F 6.6 °F 9.9 °F
Humidity: 69 % 43 % 53 %
Wind Speed: 12.9 mph 1.6 mph 7 mph
Wind Gust: 24.2 mph - -
Wind:- - WNW
Pressure: 30.38 in 30.21 in -
Precipitation: 0.00 in    
Historical Graphs
 
 
Tabular Data for March 12, 2017
Time Temperature Dew Point Pressure Wind Wind Speed Wind Gust Humidity Rainfall Rate (Hourly)
00:02 22.2 °F 9.3 °F 30.22 in WNW 8.1 mph 12.7 mph 57 % 0.00 in
00:07 22.2 °F 9.7 °F 30.21 in WNW 7.0 mph 20.7 mph 58 % 0.00 in
00:12 22.2 °F 9.7 °F 30.21 in WNW 10.8 mph 15.0 mph 58 % 0.00 in
00:17 22.1 °F 8.8 °F 30.21 in West 11.8 mph 19.6 mph 56 % 0.00 in
00:22 22.1 °F 9.2 °F 30.21 in WSW 9.1 mph 16.1 mph 57 % 0.00 in
00:27 22.1 °F 9.9 °F 30.21 in WNW 8.6 mph 13.0 mph 59 % 0.00 in
00:32 22.0 °F 9.5 °F 30.22 in WNW 7.4 mph 15.0 mph 58 % 0.00 in
00:37 22.0 °F 9.5 °F 30.23 in West 9.5 mph 13.8 mph 58 % 0.00 in
00:42 22.0 °F 9.5 °F 30.23 in WSW 6.7 mph 11.5 mph 58 % 0.00 in
00:47 22.0 °F 9.5 °F 30.22 in West 5.2 mph 15.0 mph 58 % 0.00 in
00:52 22.0 °F 9.5 °F 30.23 in NNW 10.4 mph 17.3 mph 58 % 0.00 in
00:57 22.0 °F 9.8 °F 30.23 in WSW 3.3 mph 11.5 mph 59 % 0.00 in
01:02 22.0 °F 9.8 °F 30.23 in WNW 4.4 mph 12.7 mph 59 % 0.00 in
01:07 22.0 °F 9.8 °F 30.23 in WNW 10.1 mph 16.1 mph 59 % 0.00 in
01:12 22.0 °F 10.2 °F 30.23 in NW 8.4 mph 13.8 mph 60 % 0.00 in
01:17 22.0 °F 10.2 °F 30.23 in WNW 10.1 mph 19.6 mph 60 % 0.00 in
01:22 22.0 °F 9.8 °F 30.23 in West 6.2 mph 16.0 mph 59 % 0.00 in
01:27 22.0 °F 10.2 °F 30.23 in WNW 9.4 mph 19.6 mph 60 % 0.00 in
01:32 21.9 °F 10.1 °F 30.23 in West 7.6 mph 11.5 mph 60 % 0.00 in
01:37 21.9 °F 10.5 °F 30.23 in West 8.2 mph 16.1 mph 61 % 0.00 in
01:42 21.9 °F 10.1 °F 30.23 in WNW 10.1 mph 19.6 mph 60 % 0.00 in
01:47 21.8 °F 9.7 °F 30.23 in West 6.2 mph 15.0 mph 59 % 0.00 in
01:53 21.8 °F 10.0 °F 30.24 in NW 6.4 mph 10.4 mph 60 % 0.00 in
01:58 21.8 °F 10.0 °F 30.23 in NW 6.2 mph 13.8 mph 60 % 0.00 in
03:03 21.7 °F 9.9 °F 30.23 in WNW 9.0 mph 16.1 mph 60 % 0.00 in
03:08 21.7 °F 9.9 °F 30.24 in NW 6.7 mph 15.0 mph 60 % 0.00 in
03:13 21.7 °F 9.6 °F 30.23 in North 11.1 mph 17.3 mph 59 % 0.00 in
03:18 21.6 °F 9.8 °F 30.23 in West 11.4 mph 19.6 mph 60 % 0.00 in
03:23 21.6 °F 9.5 °F 30.24 in NW 7.5 mph 18.4 mph 59 % 0.00 in
03:28 21.6 °F 9.5 °F 30.23 in West 8.8 mph 17.3 mph 59 % 0.00 in
03:33 21.5 °F 9.7 °F 30.23 in West 8.0 mph 11.5 mph 60 % 0.00 in
03:38 21.5 °F 9.7 °F 30.24 in West 4.1 mph 10.4 mph 60 % 0.00 in
03:43 21.5 °F 10.5 °F 30.23 in West 6.7 mph 16.1 mph 62 % 0.00 in
03:48 21.5 °F 10.5 °F 30.23 in NW 8.4 mph 15.0 mph 62 % 0.00 in
03:53 21.5 °F 10.1 °F 30.24 in WNW 10.0 mph 15.0 mph 61 % 0.00 in
03:58 21.4 °F 10.0 °F 30.23 in WNW 7.0 mph 15.0 mph 61 % 0.00 in
04:03 21.4 °F 9.7 °F 30.23 in West 10.4 mph 15.0 mph 60 % 0.00 in
04:08 21.3 °F 9.6 °F 30.23 in NW 6.2 mph 16.1 mph 60 % 0.00 in
04:13 21.3 °F 9.9 °F 30.23 in WNW 10.2 mph 18.4 mph 61 % 0.00 in
04:18 21.3 °F 9.9 °F 30.23 in West 4.7 mph 8.1 mph 61 % 0.00 in
04:23 21.3 °F 9.9 °F 30.23 in WNW 8.5 mph 16.1 mph 61 % 0.00 in
04:28 21.3 °F 9.9 °F 30.23 in WNW 7.8 mph 12.7 mph 61 % 0.00 in
04:29 21.3 °F 9.6 °F 30.23 in West 6.6 mph 13.8 mph 60 % 0.00 in
04:34 21.3 °F 9.6 °F 30.24 in NW 10.5 mph 19.6 mph 60 % 0.00 in
04:39 21.2 °F 9.1 °F 30.23 in West 6.8 mph 24.2 mph 59 % 0.00 in
04:44 21.2 °F 9.5 °F 30.23 in WNW 8.5 mph 14.0 mph 60 % 0.00 in
04:50 21.2 °F 9.5 °F 30.23 in North 9.0 mph 12.7 mph 60 % 0.00 in
04:55 21.1 °F 9.4 °F 30.24 in NW 5.8 mph 15.0 mph 60 % 0.00 in
05:00 21.1 °F 9.7 °F 30.24 in WNW 7.9 mph 18.4 mph 61 % 0.00 in
05:05 21.1 °F 9.7 °F 30.24 in NW 4.5 mph 9.0 mph 61 % 0.00 in
05:10 21.1 °F 10.1 °F 30.24 in WNW 5.0 mph 10.4 mph 62 % 0.00 in
05:15 21.1 °F 10.1 °F 30.24 in NW 4.7 mph 17.3 mph 62 % 0.00 in
05:20 21.1 °F 10.1 °F 30.25 in West 8.4 mph 15.0 mph 62 % 0.00 in
05:25 21.1 °F 10.1 °F 30.24 in SW 7.4 mph 11.5 mph 62 % 0.00 in
05:30 21.0 °F 9.6 °F 30.25 in NW 6.8 mph 13.0 mph 61 % 0.00 in
05:35 21.0 °F 9.3 °F 30.25 in NNW 8.4 mph 16.1 mph 60 % 0.00 in
05:40 20.9 °F 9.9 °F 30.25 in NW 8.8 mph 16.0 mph 62 % 0.00 in
05:45 20.9 °F 9.2 °F 30.25 in NW 9.9 mph 18.4 mph 60 % 0.00 in
05:50 20.8 °F 9.5 °F 30.25 in WNW 6.3 mph 11.5 mph 61 % 0.00 in
05:55 20.8 °F 9.1 °F 30.25 in NW 10.5 mph 16.1 mph 60 % 0.00 in
06:00 20.7 °F 8.6 °F 30.25 in WNW 8.0 mph 13.0 mph 59 % 0.00 in
06:06 20.6 °F 8.5 °F 30.25 in NW 10.2 mph 15.0 mph 59 % 0.00 in
06:11 20.5 °F 8.4 °F 30.25 in WNW 9.8 mph 16.1 mph 59 % 0.00 in
06:16 20.4 °F 8.3 °F 30.24 in WNW 6.2 mph 19.0 mph 59 % 0.00 in
06:21 20.3 °F 8.2 °F 30.24 in NNW 5.5 mph 11.5 mph 59 % 0.00 in
06:26 20.2 °F 7.8 °F 30.25 in West 5.8 mph 18.4 mph 58 % 0.00 in
06:31 20.1 °F 7.3 °F 30.25 in NW 6.6 mph 16.1 mph 57 % 0.00 in
06:36 20.0 °F 7.2 °F 30.25 in West 4.2 mph 10.4 mph 57 % 0.00 in
06:37 20.0 °F 7.2 °F 30.25 in NW 5.4 mph 11.5 mph 57 % 0.00 in
06:42 20.0 °F 7.6 °F 30.25 in North 5.8 mph 10.4 mph 58 % 0.00 in
06:47 20.0 °F 9.1 °F 30.25 in North 3.2 mph 7.0 mph 62 % 0.00 in
06:52 19.8 °F 9.9 °F 30.26 in North 6.3 mph 10.4 mph 65 % 0.00 in
06:57 19.6 °F 10.7 °F 30.25 in North 4.8 mph 10.4 mph 68 % 0.00 in
07:02 19.4 °F 10.6 °F 30.26 in North 7.4 mph 9.2 mph 68 % 0.00 in
07:07 19.2 °F 10.4 °F 30.26 in NNE 4.8 mph 6.9 mph 68 % 0.00 in
07:12 19.0 °F 10.2 °F 30.26 in North 4.7 mph 8.1 mph 68 % 0.00 in
07:17 18.8 °F 10.0 °F 30.26 in North 2.1 mph 10.4 mph 68 % 0.00 in
07:22 18.7 °F 9.9 °F 30.26 in NNE 3.8 mph 9.2 mph 68 % 0.00 in
07:27 18.6 °F 10.1 °F 30.26 in NNW 1.7 mph 4.6 mph 69 % 0.00 in
07:32 18.5 °F 10.0 °F 30.27 in North 5.0 mph 6.9 mph 69 % 0.00 in
07:37 18.5 °F 10.0 °F 30.26 in NW 1.6 mph 4.0 mph 69 % 0.00 in
07:42 18.5 °F 9.7 °F 30.27 in WNW 3.5 mph 6.9 mph 68 % 0.00 in
07:47 18.7 °F 9.9 °F 30.27 in North 3.6 mph 4.6 mph 68 % 0.00 in
07:52 18.9 °F 9.7 °F 30.27 in North 3.1 mph 5.0 mph 67 % 0.00 in
07:57 19.1 °F 9.6 °F 30.27 in North 1.7 mph 7.0 mph 66 % 0.00 in
08:02 19.3 °F 8.4 °F 30.27 in NW 4.8 mph 11.5 mph 62 % 0.00 in
08:07 19.5 °F 8.2 °F 30.27 in NNW 4.7 mph 7.0 mph 61 % 0.00 in
08:12 19.8 °F 8.9 °F 30.27 in NNE 4.3 mph 5.8 mph 62 % 0.00 in
08:17 20.0 °F 8.0 °F 30.27 in WNW 4.8 mph 8.1 mph 59 % 0.00 in
08:22 20.3 °F 8.2 °F 30.27 in NNW 2.4 mph 3.5 mph 59 % 0.00 in
08:27 20.6 °F 8.9 °F 30.27 in NW 4.4 mph 6.9 mph 60 % 0.00 in
08:32 21.1 °F 9.0 °F 30.27 in NNW 2.3 mph 5.8 mph 59 % 0.00 in
08:37 21.3 °F 9.6 °F 30.28 in NW 3.6 mph 6.9 mph 60 % 0.00 in
08:42 21.6 °F 9.5 °F 30.28 in WNW 3.5 mph 6.0 mph 59 % 0.00 in
08:47 21.8 °F 9.3 °F 30.28 in North 3.9 mph 6.9 mph 58 % 0.00 in
08:52 21.8 °F 9.3 °F 30.28 in NW 2.4 mph 6.9 mph 58 % 0.00 in
08:57 21.9 °F 9.4 °F 30.28 in NW 3.4 mph 4.6 mph 58 % 0.00 in
09:02 22.0 °F 9.1 °F 30.28 in NW 4.1 mph 6.0 mph 57 % 0.00 in
09:07 22.1 °F 9.9 °F 30.28 in North 3.7 mph 6.9 mph 59 % 0.00 in
09:12 22.3 °F 10.1 °F 30.28 in North 2.1 mph 4.6 mph 59 % 0.00 in
09:17 22.6 °F 10.4 °F 30.28 in NW 3.2 mph 5.0 mph 59 % 0.00 in
09:22 22.7 °F 10.1 °F 30.28 in North 4.5 mph 6.0 mph 58 % 0.00 in
09:27 23.0 °F 10.4 °F 30.28 in WNW 2.7 mph 4.6 mph 58 % 0.00 in
09:33 23.3 °F 10.7 °F 30.28 in WNW 3.4 mph 6.0 mph 58 % 0.00 in
09:38 23.4 °F 9.2 °F 30.28 in WNW 6.1 mph 9.2 mph 54 % 0.00 in
09:43 23.5 °F 10.5 °F 30.28 in North 3.8 mph 6.0 mph 57 % 0.00 in
09:48 23.7 °F 10.3 °F 30.27 in North 5.7 mph 7.0 mph 56 % 0.00 in
09:53 23.8 °F 10.8 °F 30.27 in NNE 3.7 mph 6.9 mph 57 % 0.00 in
09:58 24.0 °F 11.0 °F 30.27 in North 2.1 mph 4.6 mph 57 % 0.00 in
10:03 24.0 °F 10.2 °F 30.27 in North 3.0 mph 9.0 mph 55 % 0.00 in
10:08 24.1 °F 11.0 °F 30.27 in North 3.0 mph 6.0 mph 57 % 0.00 in
10:13 24.0 °F 9.7 °F 30.27 in NNW 2.0 mph 9.0 mph 54 % 0.00 in
10:18 24.1 °F 10.6 °F 30.27 in NW 4.3 mph 5.8 mph 56 % 0.00 in
10:23 24.4 °F 10.5 °F 30.28 in North 4.6 mph 8.1 mph 55 % 0.00 in
10:28 24.9 °F 11.0 °F 30.28 in NW 2.4 mph 8.1 mph 55 % 0.00 in
10:33 25.6 °F 10.8 °F 30.28 in NNE 4.8 mph 7.0 mph 53 % 0.00 in
10:38 26.1 °F 11.3 °F 30.27 in NW 2.8 mph 4.6 mph 53 % 0.00 in
10:44 26.5 °F 10.8 °F 30.28 in NNW 3.6 mph 8.1 mph 51 % 0.00 in
10:49 26.6 °F 10.4 °F 30.27 in WNW 3.9 mph 6.9 mph 50 % 0.00 in
10:59 26.7 °F 10.1 °F 30.27 in NNW 4.0 mph 9.0 mph 49 % 0.00 in
13:32 30.1 °F 11.8 °F 30.25 in NW 6.5 mph 17.3 mph 46 % 0.00 in
13:37 30.3 °F 12.0 °F 30.24 in West 5.6 mph 12.7 mph 46 % 0.00 in
13:42 30.4 °F 11.6 °F 30.24 in WNW 9.4 mph 13.8 mph 45 % 0.00 in
13:46 30.5 °F 11.7 °F 30.23 in NNW 10.0 mph 12.0 mph 45 % 0.00 in
13:47 30.5 °F 12.2 °F 30.23 in NW 6.8 mph 16.1 mph 46 % 0.00 in
13:52 30.7 °F 12.3 °F 30.23 in NNW 9.7 mph 11.5 mph 46 % 0.00 in
13:57 30.7 °F 11.3 °F 30.23 in West 10.5 mph 17.3 mph 44 % 0.00 in
14:02 30.4 °F 11.1 °F 30.23 in WNW 5.5 mph 11.5 mph 44 % 0.00 in
14:07 30.3 °F 12.0 °F 30.23 in SW 7.5 mph 12.7 mph 46 % 0.00 in
14:12 30.3 °F 11.0 °F 30.23 in West 5.9 mph 17.3 mph 44 % 0.00 in
14:17 30.2 °F 10.4 °F 30.23 in West 7.1 mph 15.0 mph 43 % 0.00 in
14:22 30.4 °F 12.1 °F 30.23 in West 5.4 mph 9.2 mph 46 % 0.00 in
14:27 30.8 °F 12.4 °F 30.23 in WNW 5.5 mph 16.1 mph 46 % 0.00 in
14:32 31.1 °F 12.7 °F 30.23 in West 5.5 mph 10.4 mph 46 % 0.00 in
14:37 31.1 °F 12.2 °F 30.22 in WNW 5.6 mph 11.5 mph 45 % 0.00 in
14:42 31.1 °F 12.2 °F 30.22 in West 6.8 mph 17.3 mph 45 % 0.00 in
14:47 31.5 °F 14.0 °F 30.22 in West 6.5 mph 14.0 mph 48 % 0.00 in
14:52 31.5 °F 13.1 °F 30.22 in NNW 7.1 mph 15.0 mph 46 % 0.00 in
14:57 31.2 °F 12.8 °F 30.22 in West 9.5 mph 19.6 mph 46 % 0.00 in
15:02 31.2 °F 12.3 °F 30.22 in SW 6.1 mph 11.5 mph 45 % 0.00 in
15:07 31.2 °F 11.8 °F 30.22 in West 3.4 mph 10.4 mph 44 % 0.00 in
15:12 31.3 °F 11.9 °F 30.22 in WNW 7.8 mph 11.5 mph 44 % 0.00 in
15:17 31.3 °F 11.4 °F 30.22 in NW 7.8 mph 11.5 mph 43 % 0.00 in
15:22 31.3 °F 11.9 °F 30.22 in WSW 5.6 mph 11.5 mph 44 % 0.00 in
15:28 31.2 °F 12.3 °F 30.22 in NW 11.1 mph 18.0 mph 45 % 0.00 in
15:33 31.0 °F 11.6 °F 30.22 in West 5.2 mph 9.2 mph 44 % 0.00 in
15:38 31.0 °F 12.1 °F 30.22 in WNW 7.2 mph 12.7 mph 45 % 0.00 in
15:43 30.9 °F 12.0 °F 30.22 in West 8.0 mph 17.0 mph 45 % 0.00 in
15:48 30.7 °F 11.8 °F 30.22 in WNW 9.0 mph 18.0 mph 45 % 0.00 in
15:53 30.7 °F 12.8 °F 30.22 in WNW 8.0 mph 17.0 mph 47 % 0.00 in
15:58 30.6 °F 12.2 °F 30.22 in WNW 7.9 mph 18.4 mph 46 % 0.00 in
16:03 30.3 °F 10.4 °F 30.22 in NW 10.6 mph 20.7 mph 43 % 0.00 in
16:08 30.1 °F 10.8 °F 30.22 in WNW 10.6 mph 17.3 mph 44 % 0.00 in
16:13 29.9 °F 11.1 °F 30.22 in West 11.8 mph 16.1 mph 45 % 0.00 in
16:18 29.7 °F 10.9 °F 30.23 in WNW 10.2 mph 18.4 mph 45 % 0.00 in
16:23 29.6 °F 10.8 °F 30.22 in NW 5.9 mph 13.8 mph 45 % 0.00 in
16:28 29.6 °F 10.8 °F 30.22 in NW 5.8 mph 17.3 mph 45 % 0.00 in
16:33 29.6 °F 11.3 °F 30.22 in West 6.9 mph 17.0 mph 46 % 0.00 in
16:38 29.5 °F 10.7 °F 30.22 in WNW 7.0 mph 17.0 mph 45 % 0.00 in
16:43 29.5 °F 11.2 °F 30.22 in NW 9.6 mph 16.1 mph 46 % 0.00 in
16:48 29.5 °F 11.2 °F 30.22 in WNW 6.3 mph 9.2 mph 46 % 0.00 in
16:53 29.5 °F 11.2 °F 30.22 in SSW 6.1 mph 11.5 mph 46 % 0.00 in
16:58 29.5 °F 11.2 °F 30.22 in NW 5.0 mph 13.8 mph 46 % 0.00 in
17:03 29.5 °F 10.7 °F 30.22 in WNW 7.5 mph 11.5 mph 45 % 0.00 in
17:06 29.4 °F 10.6 °F 30.22 in WNW 6.5 mph 11.5 mph 45 % 0.00 in
17:11 29.4 °F 12.1 °F 30.22 in WNW 8.6 mph 11.5 mph 48 % 0.00 in
17:16 29.3 °F 10.6 °F 30.22 in WSW 9.1 mph 11.5 mph 45 % 0.00 in
17:21 29.1 °F 11.4 °F 30.22 in West 6.7 mph 10.4 mph 47 % 0.00 in
17:26 29.0 °F 11.3 °F 30.22 in West 9.5 mph 13.8 mph 47 % 0.00 in
17:31 28.9 °F 10.7 °F 30.22 in NW 7.2 mph 12.7 mph 46 % 0.00 in
17:36 28.8 °F 11.1 °F 30.22 in West 10.9 mph 20.7 mph 47 % 0.00 in
17:41 28.8 °F 11.1 °F 30.22 in WNW 7.0 mph 15.0 mph 47 % 0.00 in
17:46 28.7 °F 10.5 °F 30.23 in WNW 11.7 mph 19.6 mph 46 % 0.00 in
17:51 28.6 °F 10.4 °F 30.23 in NW 9.3 mph 16.1 mph 46 % 0.00 in
17:56 28.5 °F 11.3 °F 30.23 in NW 6.6 mph 11.5 mph 48 % 0.00 in
18:01 28.4 °F 11.2 °F 30.24 in North 8.4 mph 15.0 mph 48 % 0.00 in
18:06 28.4 °F 11.2 °F 30.24 in NNW 3.3 mph 11.5 mph 48 % 0.00 in
18:12 28.3 °F 10.6 °F 30.24 in WNW 9.2 mph 18.0 mph 47 % 0.00 in
18:17 28.2 °F 10.5 °F 30.25 in WNW 8.8 mph 10.4 mph 47 % 0.00 in
18:22 28.1 °F 10.9 °F 30.24 in North 9.7 mph 12.0 mph 48 % 0.00 in
18:27 28.0 °F 10.3 °F 30.24 in NNW 9.7 mph 17.3 mph 47 % 0.00 in
18:32 28.0 °F 10.3 °F 30.25 in WNW 10.0 mph 19.6 mph 47 % 0.00 in
18:37 27.9 °F 9.8 °F 30.25 in WNW 9.9 mph 16.1 mph 46 % 0.00 in
18:42 27.8 °F 9.7 °F 30.25 in WNW 8.1 mph 16.1 mph 46 % 0.00 in
18:47 27.7 °F 9.6 °F 30.26 in NW 9.5 mph 18.4 mph 46 % 0.00 in
18:49 27.7 °F 10.1 °F 30.26 in WNW 6.3 mph 15.0 mph 47 % 0.00 in
18:52 27.6 °F 10.0 °F 30.26 in WNW 8.9 mph 20.0 mph 47 % 0.00 in
18:57 27.6 °F 10.0 °F 30.26 in NW 7.1 mph 9.2 mph 47 % 0.00 in
18:59 27.5 °F 9.9 °F 30.26 in West 8.2 mph 17.3 mph 47 % 0.00 in
19:03 27.5 °F 9.4 °F 30.26 in WNW 8.3 mph 17.3 mph 46 % 0.00 in
19:08 27.4 °F 9.8 °F 30.26 in WNW 8.0 mph 15.0 mph 47 % 0.00 in
19:13 27.4 °F 10.7 °F 30.27 in NW 7.2 mph 13.0 mph 49 % 0.00 in
19:18 27.3 °F 9.7 °F 30.27 in WNW 8.0 mph 12.0 mph 47 % 0.00 in
19:23 27.2 °F 9.6 °F 30.27 in NW 11.0 mph 19.6 mph 47 % 0.00 in
19:28 27.2 °F 10.1 °F 30.27 in WNW 12.2 mph 19.6 mph 48 % 0.00 in
19:33 27.2 °F 9.6 °F 30.28 in NW 4.6 mph 18.4 mph 47 % 0.00 in
19:38 27.1 °F 9.5 °F 30.28 in NW 7.7 mph 16.1 mph 47 % 0.00 in
19:43 27.1 °F 10.0 °F 30.28 in NW 6.0 mph 12.0 mph 48 % 0.00 in
19:48 27.0 °F 9.4 °F 30.29 in NW 8.0 mph 18.0 mph 47 % 0.00 in
19:53 26.9 °F 9.3 °F 30.29 in NW 9.0 mph 18.0 mph 47 % 0.00 in
19:58 26.8 °F 9.2 °F 30.29 in NNW 9.1 mph 16.1 mph 47 % 0.00 in
20:03 26.7 °F 9.6 °F 30.30 in WNW 9.0 mph 18.4 mph 48 % 0.00 in
20:08 26.7 °F 10.1 °F 30.30 in WNW 9.9 mph 15.0 mph 49 % 0.00 in
20:13 26.7 °F 10.1 °F 30.31 in NW 7.2 mph 12.7 mph 49 % 0.00 in
20:18 26.6 °F 9.1 °F 30.31 in WNW 9.8 mph 15.0 mph 47 % 0.00 in
20:23 26.4 °F 9.8 °F 30.31 in NW 6.2 mph 11.5 mph 49 % 0.00 in
20:28 26.3 °F 9.2 °F 30.31 in NNW 8.6 mph 14.0 mph 48 % 0.00 in
20:33 26.2 °F 9.2 °F 30.32 in North 8.6 mph 18.4 mph 48 % 0.00 in
20:38 26.2 °F 10.1 °F 30.32 in NW 7.6 mph 11.5 mph 50 % 0.00 in
20:43 26.1 °F 9.1 °F 30.32 in WNW 9.9 mph 15.0 mph 48 % 0.00 in
20:48 26.0 °F 9.4 °F 30.33 in WNW 7.3 mph 17.3 mph 49 % 0.00 in
20:53 25.9 °F 9.3 °F 30.33 in WNW 6.8 mph 11.5 mph 49 % 0.00 in
20:58 25.9 °F 8.9 °F 30.33 in NW 6.0 mph 10.4 mph 48 % 0.00 in
21:03 25.8 °F 8.8 °F 30.34 in NNW 7.6 mph 13.8 mph 48 % 0.00 in
21:08 25.8 °F 9.2 °F 30.33 in NNW 8.4 mph 13.8 mph 49 % 0.00 in
21:13 25.7 °F 10.0 °F 30.33 in NNW 7.2 mph 11.5 mph 51 % 0.00 in
21:18 25.7 °F 9.2 °F 30.33 in NNW 9.1 mph 16.1 mph 49 % 0.00 in
21:23 25.6 °F 9.1 °F 30.34 in WNW 7.0 mph 15.0 mph 49 % 0.00 in
21:28 25.5 °F 8.0 °F 30.34 in West 8.4 mph 18.4 mph 47 % 0.00 in
21:34 25.4 °F 8.4 °F 30.34 in NNW 8.2 mph 12.7 mph 48 % 0.00 in
21:39 25.4 °F 9.3 °F 30.34 in NW 6.5 mph 12.0 mph 50 % 0.00 in
21:44 25.4 °F 8.9 °F 30.34 in NW 6.6 mph 16.1 mph 49 % 0.00 in
21:49 25.4 °F 9.8 °F 30.34 in WNW 12.9 mph 20.0 mph 51 % 0.00 in
21:54 25.3 °F 8.3 °F 30.34 in NNW 9.9 mph 15.0 mph 48 % 0.00 in
21:59 25.2 °F 7.8 °F 30.34 in WNW 9.5 mph 14.0 mph 47 % 0.00 in
22:04 25.1 °F 8.6 °F 30.34 in West 7.2 mph 10.4 mph 49 % 0.00 in
22:09 25.0 °F 8.5 °F 30.34 in WNW 5.9 mph 12.7 mph 49 % 0.00 in
22:14 24.9 °F 8.0 °F 30.35 in NNW 6.2 mph 11.5 mph 48 % 0.00 in
22:19 24.9 °F 8.0 °F 30.35 in WNW 7.7 mph 13.8 mph 48 % 0.00 in
22:24 24.8 °F 8.8 °F 30.35 in NNW 4.8 mph 12.7 mph 50 % 0.00 in
22:29 24.8 °F 8.8 °F 30.36 in NNW 8.9 mph 16.1 mph 50 % 0.00 in
22:34 24.8 °F 8.8 °F 30.36 in NW 9.1 mph 15.0 mph 50 % 0.00 in
22:39 24.8 °F 8.3 °F 30.36 in NW 6.9 mph 11.5 mph 49 % 0.00 in
22:44 24.7 °F 9.1 °F 30.36 in NW 6.3 mph 11.5 mph 51 % 0.00 in
22:49 24.7 °F 7.8 °F 30.36 in NW 8.7 mph 15.0 mph 48 % 0.00 in
22:54 24.5 °F 6.6 °F 30.36 in NW 7.4 mph 13.8 mph 46 % 0.00 in
22:59 24.4 °F 7.9 °F 30.36 in North 5.1 mph 11.5 mph 49 % 0.00 in
23:05 24.3 °F 7.9 °F 30.36 in NNW 6.3 mph 12.7 mph 49 % 0.00 in
23:10 24.2 °F 7.8 °F 30.36 in WNW 7.5 mph 17.3 mph 49 % 0.00 in
23:15 24.1 °F 8.1 °F 30.36 in NNW 3.5 mph 6.9 mph 50 % 0.00 in
23:20 24.0 °F 8.9 °F 30.36 in NNW 8.4 mph 17.3 mph 52 % 0.00 in
23:25 24.0 °F 8.5 °F 30.37 in NW 6.6 mph 18.0 mph 51 % 0.00 in
23:30 23.8 °F 7.4 °F 30.37 in NNW 8.3 mph 17.3 mph 49 % 0.00 in
23:35 23.7 °F 7.3 °F 30.37 in NNW 8.4 mph 17.3 mph 49 % 0.00 in
23:40 23.5 °F 7.6 °F 30.38 in NW 7.3 mph 13.8 mph 50 % 0.00 in
23:45 23.5 °F 7.1 °F 30.38 in NNW 10.6 mph 17.3 mph 49 % 0.00 in
23:50 23.4 °F 7.0 °F 30.38 in WNW 7.1 mph 15.0 mph 49 % 0.00 in
23:55 23.3 °F 7.4 °F 30.38 in NNW 6.5 mph 10.4 mph 50 % 0.00 in
Crab Meadow Weather
Compliments of Weather Underground - 2.75 mb

Script developed by  Jim McMurry - jmcmurry@mwt.net Adapted for the template by  Wim van der Kuil - Leuven-Template.eu

Recycling: An estimated 80,000,000 Hershey's Kisses are wrapped each day, using enough aluminum foil to cover over 50 acres of space -- that's almost 40 football fields. All that foil is recyclable, but not many people realize it.